Terminal Aerodrome Forecast
Issued by NWS Shreveport, LA

Home | Current Version | Previous Version | Text Only | Print | Product List | Glossary On
Versions: 1 2 3 4 5 6 7 8 9 10 11 12 13 14
380
FTUS44 KSHV 040324 AAA
TAFTYR
TAF AMD
KTYR 040324Z 0403/0424 08010KT P6SM OVC009
     FM040800 06009KT 2SM BR VCSH OVC003
     FM041500 02009KT 4SM RA BR OVC008
     FM042000 01008KT P6SM VCSH OVC010=

USA.gov is the U.S. government's official web portal to all federal, state and local government web resources and services.